createdAt,value
2019-05-07T00:01:52.611Z,98781.79
2019-05-07T00:04:22.436Z,98780.15
2019-05-07T00:06:52.943Z,98781.37
2019-05-07T00:09:23.483Z,98783.21
2019-05-07T00:11:53.471Z,98782.81
2019-05-07T00:14:24.242Z,98777.50
2019-05-07T00:16:54.041Z,98774.24
2019-05-07T00:19:24.168Z,98779.78
2019-05-07T00:21:54.158Z,98774.58
2019-05-07T00:24:23.779Z,98771.10
2019-05-07T00:26:53.457Z,98777.89
2019-05-07T00:29:23.114Z,98774.35
2019-05-07T00:31:52.752Z,98769.04
2019-05-07T00:34:24.277Z,98766.05
2019-05-07T00:37:02.295Z,98763.64
2019-05-07T00:39:35.947Z,98752.16
2019-05-07T00:42:07.370Z,98753.89
2019-05-07T00:44:38.647Z,98748.43
2019-05-07T00:47:08.289Z,98757.59
2019-05-07T00:49:37.930Z,98757.41
2019-05-07T00:52:07.558Z,98753.98
2019-05-07T00:54:37.199Z,98750.91
2019-05-07T00:57:06.806Z,98752.73
2019-05-07T00:59:36.450Z,98750.84
2019-05-07T01:02:06.143Z,98744.75
2019-05-07T01:04:35.778Z,98741.45
2019-05-07T01:07:05.539Z,98739.86
2019-05-07T01:09:35.195Z,98741.47
2019-05-07T01:12:05.448Z,98744.70
2019-05-07T01:14:35.064Z,98738.56
2019-05-07T01:17:04.777Z,98736.05
2019-05-07T01:19:34.385Z,98732.14
2019-05-07T01:22:04.034Z,98737.23
2019-05-07T01:24:33.656Z,98734.66
2019-05-07T01:27:03.297Z,98727.17
2019-05-07T01:29:32.985Z,98728.58
2019-05-07T01:32:04.278Z,98733.21
2019-05-07T01:34:37.990Z,98735.82
2019-05-07T01:37:07.629Z,98733.08
2019-05-07T01:39:37.252Z,98724.77
2019-05-07T01:42:06.888Z,98720.30
2019-05-07T01:44:36.495Z,98725.19
2019-05-07T01:47:06.150Z,98719.78
2019-05-07T01:49:35.767Z,98718.88
2019-05-07T01:52:05.453Z,98714.30
2019-05-07T01:54:35.106Z,98714.62
2019-05-07T01:57:04.857Z,98720.86
2019-05-07T01:59:34.561Z,98724.45
2019-05-07T02:02:05.905Z,98724.49
2019-05-07T02:04:37.174Z,98724.20
2019-05-07T02:07:24.582Z,98720.60
2019-05-07T02:10:11.955Z,98725.54
2019-05-07T02:12:42.617Z,98724.89
2019-05-07T02:15:12.964Z,98722.56
2019-05-07T02:17:43.059Z,98718.47
2019-05-07T02:20:13.323Z,98729.88
2019-05-07T02:22:43.010Z,98723.75
2019-05-07T02:25:12.961Z,98729.70
2019-05-07T02:27:42.574Z,98722.05
2019-05-07T02:30:14.774Z,98725.81
2019-05-07T02:32:43.812Z,98730.98
2019-05-07T02:35:13.949Z,98730.52
2019-05-07T02:37:51.317Z,98728.78
2019-05-07T02:40:34.154Z,98728.16
2019-05-07T02:43:04.034Z,98716.66
2019-05-07T02:45:53.500Z,98716.10
2019-05-07T02:48:24.185Z,98716.05
2019-05-07T02:51:05.676Z,98722.78
2019-05-07T02:53:42.906Z,98714.88
2019-05-07T02:56:12.957Z,98714.33
2019-05-07T02:58:43.429Z,98719.48
2019-05-07T03:01:13.979Z,98719.17
2019-05-07T03:03:44.947Z,98721.65
2019-05-07T03:06:15.022Z,98719.23
2019-05-07T03:08:45.169Z,98723.84
2019-05-07T03:11:15.125Z,98726.23
2019-05-07T03:13:45.089Z,98723.48
2019-05-07T03:16:14.782Z,98731.22
2019-05-07T03:18:44.476Z,98727.18
2019-05-07T03:21:15.746Z,98724.99
2019-05-07T03:23:53.956Z,98719.14
2019-05-07T03:26:25.422Z,98724.81
2019-05-07T03:28:56.676Z,98720.92
2019-05-07T03:31:28.027Z,98725.59
2019-05-07T03:34:06.970Z,98723.05
2019-05-07T03:36:46.553Z,98730.47
2019-05-07T03:39:14.375Z,98728.11
2019-05-07T03:41:44.502Z,98732.91
2019-05-07T03:44:27.774Z,98733.63
2019-05-07T03:47:06.033Z,98729.84
2019-05-07T03:49:34.242Z,98730.38
2019-05-07T03:52:04.434Z,98734.45
2019-05-07T03:54:34.429Z,98736.58
2019-05-07T03:57:10.768Z,98734.45
2019-05-07T03:59:35.530Z,98737.20
2019-05-07T04:02:05.749Z,98729.86
2019-05-07T04:04:35.602Z,98734.64
2019-05-07T04:07:05.449Z,98740.65
2019-05-07T04:09:35.068Z,98739.95
2019-05-07T04:12:05.024Z,98743.41
2019-05-07T04:14:34.923Z,98744.43
2019-05-07T04:17:16.583Z,98737.80
2019-05-07T04:19:36.058Z,98741.78
2019-05-07T04:22:05.750Z,98746.97
2019-05-07T04:24:42.930Z,98742.19
2019-05-07T04:27:13.005Z,98751.98
2019-05-07T04:29:43.122Z,98752.68
2019-05-07T04:32:14.485Z,98751.98
2019-05-07T04:34:45.847Z,98756.05
2019-05-07T04:37:16.158Z,98760.23
2019-05-07T04:39:54.456Z,98762.39
2019-05-07T04:42:24.990Z,98760.23
2019-05-07T04:44:54.721Z,98758.31
2019-05-07T04:47:38.471Z,98763.09
2019-05-07T04:49:55.682Z,98761.54
2019-05-07T04:52:35.703Z,98764.00
2019-05-07T04:55:07.618Z,98761.05
2019-05-07T04:57:37.269Z,98765.63
2019-05-07T05:00:13.150Z,98763.00
2019-05-07T05:02:43.653Z,98759.44
2019-05-07T05:05:14.923Z,98756.69
2019-05-07T05:07:44.562Z,98760.14
2019-05-07T05:10:14.518Z,98758.60
2019-05-07T05:12:44.162Z,98752.08
2019-05-07T05:15:14.180Z,98755.24
2019-05-07T05:17:50.445Z,98755.65
2019-05-07T05:20:18.276Z,98744.53
2019-05-07T05:22:49.630Z,98746.77
2019-05-07T05:25:27.053Z,98751.59
2019-05-07T05:27:56.691Z,98750.45
2019-05-07T05:30:32.709Z,98759.63
2019-05-07T05:33:04.404Z,98757.80
2019-05-07T05:35:33.839Z,98763.20
2019-05-07T05:38:03.456Z,98768.50
2019-05-07T05:40:33.168Z,98758.31
2019-05-07T05:43:06.935Z,98752.49
2019-05-07T05:45:42.588Z,98755.05
2019-05-07T05:48:13.617Z,98762.78
2019-05-07T05:50:55.144Z,98756.80
2019-05-07T05:53:32.765Z,98759.33
2019-05-07T05:56:20.137Z,98752.91
2019-05-07T05:58:54.059Z,98756.87
2019-05-07T06:01:42.634Z,98753.92
2019-05-07T06:04:22.153Z,98760.75
2019-05-07T06:07:12.234Z,98761.97
2019-05-07T06:09:48.471Z,98759.00
2019-05-07T06:12:22.437Z,98762.98
2019-05-07T06:15:01.784Z,98761.00
2019-05-07T06:17:49.264Z,98757.56
2019-05-07T06:20:22.687Z,98765.11
2019-05-07T06:23:10.023Z,98758.86
2019-05-07T06:25:42.604Z,98749.16
2019-05-07T06:28:12.650Z,98750.84
2019-05-07T06:30:42.554Z,98749.69
2019-05-07T06:33:12.528Z,98748.32
2019-05-07T06:35:43.046Z,98751.58
2019-05-07T06:38:14.319Z,98747.48
2019-05-07T06:40:46.225Z,98741.13
2019-05-07T06:43:17.581Z,98741.70
2019-05-07T06:45:52.003Z,98738.78
2019-05-07T06:48:37.219Z,98741.19
2019-05-07T06:50:59.669Z,98742.80
2019-05-07T06:53:33.529Z,98738.95
2019-05-07T06:56:03.791Z,98740.92
2019-05-07T06:58:47.189Z,98746.89
2019-05-07T07:01:34.548Z,98738.58
2019-05-07T07:04:05.990Z,98737.06
2019-05-07T07:06:47.521Z,98738.47
2019-05-07T07:09:34.235Z,98735.35
2019-05-07T07:12:05.651Z,98730.73
2019-05-07T07:14:35.290Z,98733.75
2019-05-07T07:17:05.058Z,98732.30
2019-05-07T07:19:36.213Z,98737.23
2019-05-07T07:22:06.156Z,98737.92
2019-05-07T07:24:35.797Z,98730.54
2019-05-07T07:27:05.564Z,98728.11
2019-05-07T07:29:41.928Z,98730.56
2019-05-07T07:32:13.089Z,98720.66
2019-05-07T07:34:44.345Z,98715.67
2019-05-07T07:37:18.618Z,98710.92
2019-05-07T07:39:47.432Z,98704.06
2019-05-07T07:42:17.102Z,98701.47
2019-05-07T07:44:48.365Z,98700.80
2019-05-07T07:47:18.008Z,98695.68
2019-05-07T07:49:47.865Z,98706.33
2019-05-07T07:52:17.510Z,98699.81
2019-05-07T07:54:47.134Z,98694.52
2019-05-07T07:57:34.674Z,98699.55
2019-05-07T08:00:08.067Z,98692.13
2019-05-07T08:02:39.416Z,98685.91
2019-05-07T08:05:09.839Z,98693.46
2019-05-07T08:07:39.486Z,98685.91
2019-05-07T08:10:09.707Z,98682.83
2019-05-07T08:12:39.409Z,98687.01
2019-05-07T08:15:16.718Z,98688.86
2019-05-07T08:17:41.967Z,98681.98
2019-05-07T08:20:12.902Z,98676.78
2019-05-07T08:22:42.555Z,98672.33
2019-05-07T08:25:12.808Z,98666.81
2019-05-07T08:27:42.483Z,98667.16
2019-05-07T08:30:14.074Z,98668.13
2019-05-07T08:32:54.075Z,98662.40
2019-05-07T08:35:28.066Z,98658.09
2019-05-07T08:37:57.821Z,98655.80
2019-05-07T08:40:27.535Z,98648.96
2019-05-07T08:42:58.317Z,98643.33
2019-05-07T08:45:46.019Z,98645.59
2019-05-07T08:48:17.271Z,98646.53
2019-05-07T08:50:46.914Z,98642.58
2019-05-07T08:53:16.539Z,98633.77
2019-05-07T08:55:46.230Z,98629.02
2019-05-07T08:58:15.910Z,98632.95
2019-05-07T09:00:45.518Z,98631.97
2019-05-07T09:03:22.144Z,98626.03
2019-05-07T09:05:48.181Z,98623.92
2019-05-07T09:08:17.792Z,98622.73
2019-05-07T09:10:47.410Z,98620.39
2019-05-07T09:13:17.050Z,98616.98
2019-05-07T09:15:46.664Z,98614.88
2019-05-07T09:18:16.299Z,98611.53
2019-05-07T09:20:46.000Z,98612.91
2019-05-07T09:23:15.641Z,98602.09
2019-05-07T09:25:46.914Z,98600.64
2019-05-07T09:28:16.977Z,98590.25
2019-05-07T09:31:06.046Z,98581.98
2019-05-07T09:33:37.339Z,98578.92
2019-05-07T09:36:08.597Z,98573.77
2019-05-07T09:38:38.234Z,98570.02
2019-05-07T09:41:09.506Z,98564.23
2019-05-07T09:43:39.179Z,98575.56
2019-05-07T09:46:08.780Z,98568.20
2019-05-07T09:48:38.514Z,98560.80
2019-05-07T09:51:08.130Z,98555.55
2019-05-07T09:53:37.775Z,98552.13
2019-05-07T09:56:07.403Z,98545.36
2019-05-07T09:58:39.195Z,98547.63
2019-05-07T10:01:08.609Z,98549.75
2019-05-07T10:03:38.416Z,98548.99
2019-05-07T10:06:08.185Z,98543.34
2019-05-07T10:08:38.007Z,98537.56
2019-05-07T10:11:09.285Z,98540.34
2019-05-07T10:13:42.009Z,98540.08
2019-05-07T10:16:12.753Z,98539.34
2019-05-07T10:18:42.890Z,98539.66
2019-05-07T10:21:12.830Z,98530.25
2019-05-07T10:23:42.610Z,98530.62
2019-05-07T10:26:12.327Z,98531.69
2019-05-07T10:28:42.466Z,98532.58
2019-05-07T10:31:12.417Z,98519.73
2019-05-07T10:33:42.375Z,98521.48
2019-05-07T10:36:12.578Z,98520.27
2019-05-07T10:38:42.407Z,98525.52
2019-05-07T10:41:12.664Z,98512.91
2019-05-07T10:43:42.912Z,98518.86
2019-05-07T10:46:15.601Z,98519.99
2019-05-07T10:48:46.888Z,98514.87
2019-05-07T10:51:16.753Z,98514.03
2019-05-07T10:53:46.478Z,98512.15
2019-05-07T10:56:16.099Z,98500.88
2019-05-07T10:58:45.863Z,98501.45
2019-05-07T11:01:18.056Z,98493.13
2019-05-07T11:03:47.673Z,98484.77
2019-05-07T11:06:17.384Z,98485.60
2019-05-07T11:08:47.170Z,98482.92
2019-05-07T11:11:16.929Z,98479.17
2019-05-07T11:13:46.547Z,98474.33
2019-05-07T11:16:17.840Z,98466.36
2019-05-07T11:18:49.106Z,98460.69
2019-05-07T11:21:22.181Z,98458.75
2019-05-07T11:23:52.216Z,98460.67
2019-05-07T11:26:22.233Z,98458.52
2019-05-07T11:28:51.898Z,98450.49
2019-05-07T11:31:22.387Z,98441.91
2019-05-07T11:33:52.177Z,98441.66
2019-05-07T11:36:21.937Z,98439.22
2019-05-07T11:38:52.678Z,98436.00
2019-05-07T11:41:24.117Z,98435.69
2019-05-07T11:43:55.370Z,98429.66
2019-05-07T11:46:26.642Z,98424.59
2019-05-07T11:48:57.940Z,98425.25
2019-05-07T11:51:37.921Z,98415.30
2019-05-07T11:54:14.419Z,98413.96
2019-05-07T11:56:44.221Z,98402.97
2019-05-07T11:59:13.848Z,98405.33
2019-05-07T12:01:47.810Z,98404.26
2019-05-07T12:04:16.696Z,98404.41
2019-05-07T12:06:46.319Z,98394.84
2019-05-07T12:09:15.958Z,98389.73
2019-05-07T12:11:45.584Z,98381.62
2019-05-07T12:14:27.979Z,98379.48
2019-05-07T12:16:46.572Z,98371.95
2019-05-07T12:19:16.698Z,98367.16
2019-05-07T12:21:46.765Z,98368.17
2019-05-07T12:24:16.659Z,98369.84
2019-05-07T12:26:46.547Z,98361.19
2019-05-07T12:29:16.202Z,98367.66
2019-05-07T12:31:45.590Z,98359.96
2019-05-07T12:34:16.848Z,98363.91
2019-05-07T12:36:46.498Z,98364.20
2019-05-07T12:39:16.192Z,98357.80
2019-05-07T12:41:45.844Z,98357.58
2019-05-07T12:44:15.472Z,98352.22
2019-05-07T12:46:45.188Z,98347.70
2019-05-07T12:49:14.808Z,98339.59
2019-05-07T12:51:46.162Z,98334.83
2019-05-07T12:54:22.544Z,98337.14
2019-05-07T12:56:52.059Z,98347.13
2019-05-07T12:59:22.005Z,98336.97
2019-05-07T13:02:17.967Z,98333.50
2019-05-07T13:04:37.410Z,98329.43
2019-05-07T13:07:14.678Z,98327.27
2019-05-07T13:09:44.290Z,98323.80
2019-05-07T13:12:14.080Z,98323.77
2019-05-07T13:14:43.709Z,98316.20
2019-05-07T13:17:13.333Z,98320.52
2019-05-07T13:19:42.975Z,98320.06
2019-05-07T13:22:13.138Z,98316.95
2019-05-07T13:24:44.471Z,98314.40
2019-05-07T13:27:19.660Z,98307.95
2019-05-07T13:29:50.016Z,98300.42
2019-05-07T13:32:22.437Z,98304.44
2019-05-07T13:34:53.605Z,98305.27
2019-05-07T13:37:25.239Z,98310.33
2019-05-07T13:39:56.958Z,98305.67
2019-05-07T13:42:44.217Z,98307.05
2019-05-07T13:45:22.799Z,98298.95
2019-05-07T13:47:54.497Z,98298.08
2019-05-07T13:50:24.241Z,98292.70
2019-05-07T13:52:53.938Z,98292.06
2019-05-07T13:55:23.560Z,98286.80
2019-05-07T13:57:53.279Z,98288.03
2019-05-07T14:00:28.306Z,98289.20
2019-05-07T14:02:58.186Z,98282.98
2019-05-07T14:05:27.902Z,98273.11
2019-05-07T14:07:58.061Z,98274.45
2019-05-07T14:10:27.695Z,98267.12
2019-05-07T14:13:08.500Z,98261.98
2019-05-07T14:15:28.819Z,98268.25
2019-05-07T14:17:58.459Z,98267.40
2019-05-07T14:20:28.155Z,98257.66
2019-05-07T14:22:57.874Z,98255.37
2019-05-07T14:25:27.488Z,98249.78
2019-05-07T14:27:58.811Z,98247.89
2019-05-07T14:30:28.785Z,98242.52
2019-05-07T14:33:03.044Z,98239.86
2019-05-07T14:35:39.974Z,98243.30
2019-05-07T14:38:23.490Z,98237.28
2019-05-07T14:40:53.117Z,98232.42
2019-05-07T14:43:26.875Z,98223.14
2019-05-07T14:45:56.599Z,98223.11
2019-05-07T14:48:26.371Z,98222.23
2019-05-07T14:50:56.085Z,98214.48
2019-05-07T14:53:25.924Z,98219.41
2019-05-07T14:55:55.644Z,98212.69
2019-05-07T14:58:25.399Z,98203.30
2019-05-07T15:00:55.114Z,98200.63
2019-05-07T15:03:24.739Z,98189.36
2019-05-07T15:05:54.625Z,98188.64
2019-05-07T15:08:24.646Z,98182.13
2019-05-07T15:10:54.359Z,98186.47
2019-05-07T15:13:24.004Z,98181.47
2019-05-07T15:15:53.774Z,98181.43
2019-05-07T15:18:28.328Z,98177.78
2019-05-07T15:20:57.943Z,98179.05
2019-05-07T15:23:29.450Z,98178.27
2019-05-07T15:26:02.073Z,98180.02
2019-05-07T15:28:32.314Z,98179.48
2019-05-07T15:31:03.852Z,98179.55
2019-05-07T15:33:33.487Z,98171.01
2019-05-07T15:36:06.095Z,98176.31
2019-05-07T15:38:34.687Z,98174.63
2019-05-07T15:41:04.477Z,98174.77
2019-05-07T15:43:34.236Z,98166.90
2019-05-07T15:46:04.098Z,98165.08
2019-05-07T15:48:33.727Z,98166.83
2019-05-07T15:51:03.583Z,98156.45
2019-05-07T15:53:34.853Z,98165.98
2019-05-07T15:56:04.659Z,98164.60
2019-05-07T15:58:34.278Z,98159.96
2019-05-07T16:01:04.050Z,98164.09
2019-05-07T16:03:35.337Z,98156.84
2019-05-07T16:06:05.496Z,98156.09
2019-05-07T16:08:36.851Z,98151.49
2019-05-07T16:11:06.685Z,98153.33
2019-05-07T16:13:37.965Z,98153.25
2019-05-07T16:16:07.598Z,98150.03
2019-05-07T16:18:55.156Z,98149.72
2019-05-07T16:21:24.775Z,98147.52
2019-05-07T16:23:54.838Z,98149.09
2019-05-07T16:26:24.520Z,98148.66
2019-05-07T16:28:54.182Z,98150.86
2019-05-07T16:31:24.671Z,98143.08
2019-05-07T16:33:54.510Z,98142.70
2019-05-07T16:36:24.157Z,98147.95
2019-05-07T16:38:53.777Z,98145.69
2019-05-07T16:41:23.437Z,98139.69
2019-05-07T16:43:53.052Z,98141.87
2019-05-07T16:46:22.767Z,98137.23
2019-05-07T16:48:52.412Z,98132.52
2019-05-07T16:51:22.530Z,98130.30
2019-05-07T16:53:52.536Z,98128.36
2019-05-07T16:56:22.760Z,98127.39
2019-05-07T16:59:01.679Z,98128.48
2019-05-07T17:01:32.462Z,98125.83
2019-05-07T17:04:02.915Z,98112.95
2019-05-07T17:06:32.652Z,98109.81
2019-05-07T17:09:09.772Z,98112.34
2019-05-07T17:11:39.443Z,98114.58
2019-05-07T17:14:09.066Z,98106.75
2019-05-07T17:16:38.690Z,98108.95
2019-05-07T17:19:09.074Z,98109.20
2019-05-07T17:21:38.693Z,98106.20
2019-05-07T17:24:08.336Z,98103.02
2019-05-07T17:26:38.236Z,98104.55
2019-05-07T17:29:08.024Z,98103.08
2019-05-07T17:31:37.655Z,98101.67
2019-05-07T17:34:07.296Z,98101.98
2019-05-07T17:36:36.924Z,98097.11
2019-05-07T17:39:08.765Z,98101.09
2019-05-07T17:41:38.391Z,98097.73
2019-05-07T17:44:08.021Z,98097.23
2019-05-07T17:46:37.661Z,98096.50
2019-05-07T17:49:07.280Z,98093.64
2019-05-07T17:51:46.238Z,98094.33
2019-05-07T17:54:16.072Z,98100.70
2019-05-07T17:56:45.934Z,98101.05
2019-05-07T17:59:15.602Z,98096.38
2019-05-07T18:01:50.036Z,98100.28
2019-05-07T18:04:18.303Z,98102.73
2019-05-07T18:06:47.938Z,98096.06
2019-05-07T18:09:17.556Z,98101.27
2019-05-07T18:11:47.207Z,98097.02
2019-05-07T18:14:16.834Z,98097.20
2019-05-07T18:16:57.798Z,98099.14
2019-05-07T18:19:29.062Z,98102.91
2019-05-07T18:21:58.723Z,98096.25
2019-05-07T18:24:28.364Z,98091.23
2019-05-07T18:26:58.055Z,98094.53
2019-05-07T18:29:27.822Z,98090.88
2019-05-07T18:31:59.098Z,98093.33
2019-05-07T18:34:28.809Z,98086.09
2019-05-07T18:36:58.507Z,98085.88
2019-05-07T18:39:28.163Z,98082.73
2019-05-07T18:41:57.851Z,98086.49
2019-05-07T18:44:27.539Z,98082.22
2019-05-07T18:46:57.237Z,98084.15
2019-05-07T18:49:26.853Z,98084.74
2019-05-07T18:51:56.502Z,98094.76
2019-05-07T18:54:30.966Z,98091.53
2019-05-07T18:56:57.656Z,98096.36
2019-05-07T18:59:28.917Z,98097.48
2019-05-07T19:01:58.587Z,98098.38
2019-05-07T19:04:30.201Z,98098.91
2019-05-07T19:07:02.380Z,98104.91
2019-05-07T19:09:32.084Z,98103.02
2019-05-07T19:12:02.988Z,98106.78
2019-05-07T19:14:33.379Z,98106.55
2019-05-07T19:17:03.613Z,98105.48
2019-05-07T19:19:33.487Z,98104.45
2019-05-07T19:22:03.599Z,98104.95
2019-05-07T19:24:44.361Z,98099.34
2019-05-07T19:27:05.024Z,98102.29
2019-05-07T19:29:34.872Z,98104.22
2019-05-07T19:32:06.317Z,98096.42
2019-05-07T19:34:36.242Z,98094.54
2019-05-07T19:37:06.226Z,98101.81
2019-05-07T19:39:36.123Z,98098.34
2019-05-07T19:42:05.864Z,98098.87
2019-05-07T19:44:35.533Z,98098.89
2019-05-07T19:47:05.222Z,98098.89
2019-05-07T19:49:34.875Z,98094.61
2019-05-07T19:52:04.499Z,98098.05
2019-05-07T19:54:34.151Z,98096.45
2019-05-07T19:57:03.843Z,98098.32
2019-05-07T19:59:33.565Z,98098.61
2019-05-07T20:02:04.893Z,98101.27
2019-05-07T20:04:34.538Z,98097.53
2019-05-07T20:07:04.177Z,98098.05
2019-05-07T20:09:35.443Z,98089.20
2019-05-07T20:12:07.922Z,98083.58
2019-05-07T20:14:36.580Z,98082.78
2019-05-07T20:17:06.298Z,98084.11
2019-05-07T20:19:35.941Z,98087.33
2019-05-07T20:22:05.734Z,98084.89
2019-05-07T20:24:35.361Z,98081.16
2019-05-07T20:27:05.173Z,98090.02
2019-05-07T20:29:34.799Z,98087.58
2019-05-07T20:32:04.482Z,98089.73
2019-05-07T20:34:34.128Z,98089.72
2019-05-07T20:37:03.901Z,98090.26
2019-05-07T20:39:33.547Z,98086.22
2019-05-07T20:42:03.231Z,98086.17
2019-05-07T20:44:32.902Z,98089.95
2019-05-07T20:47:02.579Z,98084.06
2019-05-07T20:49:32.291Z,98078.70
2019-05-07T20:52:01.918Z,98076.25
2019-05-07T20:54:33.211Z,98074.91
2019-05-07T20:57:22.957Z,98066.06
2019-05-07T20:59:52.620Z,98070.08
2019-05-07T21:02:22.844Z,98063.66
2019-05-07T21:04:52.553Z,98058.29
2019-05-07T21:07:22.396Z,98059.06
2019-05-07T21:09:53.009Z,98051.30
2019-05-07T21:12:22.781Z,98056.13
2019-05-07T21:14:52.641Z,98056.38
2019-05-07T21:17:22.774Z,98057.72
2019-05-07T21:19:52.644Z,98058.53
2019-05-07T21:22:22.777Z,98056.94
2019-05-07T21:24:53.202Z,98059.05
2019-05-07T21:27:23.208Z,98058.00
2019-05-07T21:29:52.922Z,98058.52
2019-05-07T21:32:23.205Z,98043.25
2019-05-07T21:34:52.967Z,98029.56
2019-05-07T21:37:22.960Z,98016.44
2019-05-07T21:39:53.242Z,98016.96
2019-05-07T21:42:23.159Z,98012.13
2019-05-07T21:44:52.891Z,98015.86
2019-05-07T21:47:22.574Z,98010.25
2019-05-07T21:49:54.914Z,98001.40
2019-05-07T21:52:25.250Z,97997.41
2019-05-07T21:54:56.566Z,97990.41
2019-05-07T21:57:32.824Z,97986.92
2019-05-07T22:00:12.667Z,98000.31
2019-05-07T22:02:42.620Z,98006.47
2019-05-07T22:05:13.069Z,98006.76
2019-05-07T22:07:42.827Z,98008.11
2019-05-07T22:10:13.160Z,98010.77
2019-05-07T22:12:43.148Z,98007.22
2019-05-07T22:15:13.105Z,98012.24
2019-05-07T22:17:44.395Z,98008.23
2019-05-07T22:20:14.349Z,98001.05
2019-05-07T22:22:44.065Z,98008.08
2019-05-07T22:25:13.829Z,97998.06
2019-05-07T22:27:43.500Z,97989.50
2019-05-07T22:30:23.821Z,97979.86
2019-05-07T22:32:55.125Z,97979.86
2019-05-07T22:35:26.390Z,97976.91
2019-05-07T22:37:56.008Z,97985.98
2019-05-07T22:40:25.723Z,97989.19
2019-05-07T22:42:55.351Z,97985.69
2019-05-07T22:45:25.069Z,97971.46
2019-05-07T22:47:54.696Z,97962.61
2019-05-07T22:50:24.410Z,97959.91
2019-05-07T22:52:54.408Z,97963.73
2019-05-07T22:55:24.335Z,97973.39
2019-05-07T22:57:58.009Z,97967.98
2019-05-07T23:00:29.306Z,97975.75
2019-05-07T23:02:58.944Z,97966.61
2019-05-07T23:05:28.600Z,97965.77
2019-05-07T23:07:58.230Z,97963.88
2019-05-07T23:10:28.000Z,97962.00
2019-05-07T23:13:01.888Z,97962.51
2019-05-07T23:15:32.188Z,97964.05
2019-05-07T23:18:04.227Z,97957.37
2019-05-07T23:20:33.358Z,97962.48
2019-05-07T23:23:03.012Z,97949.97
2019-05-07T23:25:32.635Z,97948.59
2019-05-07T23:28:04.870Z,97944.30
2019-05-07T23:30:33.624Z,97944.89
2019-05-07T23:33:03.371Z,97940.66
2019-05-07T23:35:32.997Z,97932.12
2019-05-07T23:38:02.648Z,97937.75
2019-05-07T23:40:52.467Z,97929.79
2019-05-07T23:43:22.952Z,97927.58
2019-05-07T23:45:52.716Z,97934.25
2019-05-07T23:48:22.875Z,97930.41
2019-05-07T23:50:52.705Z,97931.47
2019-05-07T23:53:22.577Z,97931.95
2019-05-07T23:55:52.380Z,97926.66
2019-05-07T23:58:23.057Z,97924.78
